Time;durP1;ratioP1;P1;durP2;ratioP2;P2;SDS_P1;SDS_P2;PMS_P1;PMS_P2;Temp;Humidity;BMP_temperature;BMP_pressure;BME280_temperature;BME280_humidity;BME280_pressure;Samples;Min_cycle;Max_cycle;Signal;HPM_P1;HPM_P2
2024/02/16 00:01:43;;;;;;;;;;;;;;;;;;5107249;28;19924;-75
2024/02/16 00:04:10;;;;;;;;;;;;;;;;;;5103874;28;19934;-77
2024/02/16 00:06:36;;;;;;;;;;;;;;;;;;5099379;28;19931;-75
2024/02/16 00:09:03;;;;;;;;;;;;;;;;;;5108361;28;19935;-75
2024/02/16 00:11:29;;;;;;;;;;;;;;;;;;5104025;27;19997;-78
2024/02/16 00:13:56;;;;;;;;;;;;;;;;;;5110573;28;20373;-76
2024/02/16 00:16:22;;;;;;;;;;;;;;;;;;5106525;28;19978;-75
2024/02/16 00:18:49;;;;;;;;;;;;;;;;;;5107801;28;20413;-76
2024/02/16 00:21:16;;;;;;;;;;;;;;;;;;5092551;28;19924;-76
2024/02/16 00:23:44;;;;;;;;;;;;;;;;;;5099425;28;20047;-76
2024/02/16 00:26:10;;;;;;;;;;;;;;;;;;5105311;28;19978;-76
2024/02/16 00:28:37;;;;;;;;;;;;;;;;;;5108322;28;19924;-77
2024/02/16 00:31:05;;;;;;;;;;;;;;;;;;5110317;28;20015;-75
2024/02/16 00:33:32;;;;;;;;;;;;;;;;;;5108275;28;20411;-76
2024/02/16 00:35:58;;;;;;;;;;;;;;;;;;5105098;28;20274;-74
2024/02/16 00:38:24;;;;;;;;;;;;;;;;;;5105983;28;19935;-75
2024/02/16 00:40:51;;;;;;;;;;;;;;;;;;5106619;28;20638;-76
2024/02/16 00:43:17;;;;;;;;;;;;;;;;;;5110264;28;19963;-75
2024/02/16 00:45:44;;;;;;;;;;;;;;;;;;5099905;28;20389;-76
2024/02/16 00:48:11;;;;;;;;;;;;;;;;;;5106485;28;19967;-76
2024/02/16 00:50:37;;;;;;;;;;;;;;;;;;5101317;28;19930;-76
2024/02/16 00:53:04;;;;;;;;;;;;;;;;;;5098183;28;19930;-75
2024/02/16 00:55:30;;;;;;;;;;;;;;;;;;5104798;28;20109;-76
2024/02/16 00:57:57;;;;;;;;;;;;;;;;;;5105268;28;19951;-76
2024/02/16 01:00:23;;;;;;;;;;;;;;;;;;5108939;28;19938;-74
2024/02/16 01:02:50;;;;;;;;;;;;;;;;;;5102774;28;19963;-76
2024/02/16 01:05:17;;;;;;;;;;;;;;;;;;5108116;28;19950;-76
2024/02/16 01:07:44;;;;;;;;;;;;;;;;;;5104710;28;19928;-76
2024/02/16 01:10:12;;;;;;;;;;;;;;;;;;5095353;28;19924;-75
2024/02/16 01:12:38;;;;;;;;;;;;;;;;;;5098597;28;19932;-75
2024/02/16 01:15:05;;;;;;;;;;;;;;;;;;5107914;28;20013;-76
2024/02/16 01:17:32;;;;;;;;;;;;;;;;;;5108269;28;19969;-76
2024/02/16 01:19:59;;;;;;;;;;;;;;;;;;5105648;28;19928;-76
2024/02/16 01:22:29;;;;;;;;;;;;;;;;;;5106539;28;19953;-75
2024/02/16 01:24:55;;;;;;;;;;;;;;;;;;5102868;28;19927;-76
2024/02/16 01:27:21;;;;;;;;;;;;;;;;;;5104543;28;19924;-76
2024/02/16 01:29:48;;;;;;;;;;;;;;;;;;5100757;28;19932;-75
2024/02/16 01:32:14;;;;;;;;;;;;;;;;;;5106484;28;19985;-76
2024/02/16 01:34:41;;;;;;;;;;;;;;;;;;5120782;27;20015;-75
2024/02/16 01:37:07;;;;;;;;;;;;;;;;;;5108435;28;19974;-75
2024/02/16 01:39:34;;;;;;;;;;;;;;;;;;5109074;28;19962;-75
2024/02/16 01:42:00;;;;;;;;;;;;;;;;;;5101561;28;20019;-76
2024/02/16 01:44:26;;;;;;;;;;;;;;;;;;5105721;28;19924;-76
2024/02/16 01:46:53;;;;;;;;;;;;;;;;;;5104315;28;20376;-75
2024/02/16 01:49:19;;;;;;;;;;;;;;;;;;5100788;28;19928;-74
2024/02/16 01:51:45;;;;;;;;;;;;;;;;;;5098705;28;19924;-74
2024/02/16 01:54:12;;;;;;;;;;;;;;;;;;5108595;28;19930;-75
2024/02/16 01:56:38;;;;;;;;;;;;;;;;;;5101330;28;19931;-75
2024/02/16 01:59:05;;;;;;;;;;;;;;;;;;5103782;28;20525;-76
2024/02/16 02:01:31;;;;;;;;;;;;;;;;;;5107881;28;19924;-76
2024/02/16 02:03:58;;;;;;;;;;;;;;;;;;5101583;28;19924;-76
2024/02/16 02:06:24;;;;;;;;;;;;;;;;;;5101845;28;19924;-76
2024/02/16 02:08:51;;;;;;;;;;;;;;;;;;5100536;28;19946;-75
2024/02/16 02:11:18;;;;;;;;;;;;;;;;;;5100279;28;19977;-76
2024/02/16 02:13:44;;;;;;;;;;;;;;;;;;5105883;28;20030;-76
2024/02/16 02:16:11;;;;;;;;;;;;;;;;;;5103187;28;19930;-76
2024/02/16 02:18:37;;;;;;;;;;;;;;;;;;5101260;28;19924;-76
2024/02/16 02:21:04;;;;;;;;;;;;;;;;;;5106776;28;20376;-76
2024/02/16 02:23:30;;;;;;;;;;;;;;;;;;5108443;28;19924;-76
2024/02/16 02:25:56;;;;;;;;;;;;;;;;;;5088705;28;19928;-77
2024/02/16 02:28:24;;;;;;;;;;;;;;;;;;5100667;28;20391;-76
2024/02/16 02:30:50;;;;;;;;;;;;;;;;;;5105062;28;19924;-76
2024/02/16 02:33:17;;;;;;;;;;;;;;;;;;5108954;28;19970;-75
2024/02/16 02:35:43;;;;;;;;;;;;;;;;;;5106926;28;20437;-76
2024/02/16 02:38:10;;;;;;;;;;;;;;;;;;5097235;28;20407;-76
2024/02/16 02:40:36;;;;;;;;;;;;;;;;;;5101530;28;19924;-75
2024/02/16 02:43:03;;;;;;;;;;;;;;;;;;5105862;28;20415;-75
2024/02/16 02:45:30;;;;;;;;;;;;;;;;;;5098739;28;20023;-77
2024/02/16 02:47:57;;;;;;;;;;;;;;;;;;5105882;28;19958;-76
2024/02/16 02:50:24;;;;;;;;;;;;;;;;;;5103695;28;20392;-74
2024/02/16 02:52:50;;;;;;;;;;;;;;;;;;5102837;28;20026;-77
2024/02/16 02:55:16;;;;;;;;;;;;;;;;;;5109022;28;19924;-75
2024/02/16 02:57:43;;;;;;;;;;;;;;;;;;5105148;28;20014;-74
2024/02/16 03:00:12;;;;;;;;;;;;;;;;;;5102791;28;19923;-75
2024/02/16 03:02:39;;;;;;;;;;;;;;;;;;5100385;28;19924;-76
2024/02/16 03:05:07;;;;;;;;;;;;;;;;;;5098248;28;19931;-76
2024/02/16 03:07:33;;;;;;;;;;;;;;;;;;5100553;28;19924;-76
2024/02/16 03:09:59;;;;;;;;;;;;;;;;;;5105350;28;19973;-76
2024/02/16 03:12:26;;;;;;;;;;;;;;;;;;5102511;28;19927;-76
2024/02/16 03:14:52;;;;;;;;;;;;;;;;;;5096490;28;19928;-76
2024/02/16 03:17:18;;;;;;;;;;;;;;;;;;5107272;28;19930;-76
2024/02/16 03:19:45;;;;;;;;;;;;;;;;;;5104911;28;19975;-75
2024/02/16 03:22:12;;;;;;;;;;;;;;;;;;5098404;28;19931;-76
2024/02/16 03:24:38;;;;;;;;;;;;;;;;;;5103963;28;19924;-76
2024/02/16 03:27:05;;;;;;;;;;;;;;;;;;5085235;28;19930;-75
2024/02/16 03:29:31;;;;;;;;;;;;;;;;;;5108742;28;19924;-75
2024/02/16 03:31:58;;;;;;;;;;;;;;;;;;5107494;28;19923;-75
2024/02/16 03:34:24;;;;;;;;;;;;;;;;;;5108647;28;19966;-76
2024/02/16 03:36:51;;;;;;;;;;;;;;;;;;5109898;28;20388;-77
2024/02/16 03:39:20;;;;;;;;;;;;;;;;;;5107246;28;19930;-75
2024/02/16 03:41:49;;;;;;;;;;;;;;;;;;5101636;28;20341;-76
2024/02/16 03:44:15;;;;;;;;;;;;;;;;;;5107654;28;19924;-77
2024/02/16 03:46:42;;;;;;;;;;;;;;;;;;5112111;28;19932;-75
2024/02/16 03:49:08;;;;;;;;;;;;;;;;;;5113532;28;19924;-75
2024/02/16 03:51:36;;;;;;;;;;;;;;;;;;5109180;28;20373;-76
2024/02/16 03:54:03;;;;;;;;;;;;;;;;;;5108799;28;19924;-76
2024/02/16 03:56:30;;;;;;;;;;;;;;;;;;5102407;28;19969;-76
2024/02/16 03:58:56;;;;;;;;;;;;;;;;;;5103832;28;19928;-75
2024/02/16 04:01:23;;;;;;;;;;;;;;;;;;5108333;28;19931;-76
2024/02/16 04:03:49;;;;;;;;;;;;;;;;;;5104617;28;20395;-76
2024/02/16 04:06:15;;;;;;;;;;;;;;;;;;5104764;28;19928;-75
2024/02/16 04:08:42;;;;;;;;;;;;;;;;;;5110910;28;20384;-75
2024/02/16 04:11:08;;;;;;;;;;;;;;;;;;5111108;28;19928;-76
2024/02/16 04:13:35;;;;;;;;;;;;;;;;;;5103538;28;20272;-77
2024/02/16 04:16:01;;;;;;;;;;;;;;;;;;5108990;28;19924;-76
2024/02/16 04:18:27;;;;;;;;;;;;;;;;;;5111480;28;19935;-76
2024/02/16 04:20:54;;;;;;;;;;;;;;;;;;5106492;28;19954;-75
2024/02/16 04:23:20;;;;;;;;;;;;;;;;;;5106688;28;19969;-76
2024/02/16 04:25:47;;;;;;;;;;;;;;;;;;5110525;28;19930;-76
2024/02/16 04:28:13;;;;;;;;;;;;;;;;;;5105664;28;19924;-77
2024/02/16 04:30:40;;;;;;;;;;;;;;;;;;5105802;28;19973;-74
2024/02/16 04:33:06;;;;;;;;;;;;;;;;;;5096204;28;19967;-76
2024/02/16 04:35:33;;;;;;;;;;;;;;;;;;5096074;28;19947;-78
2024/02/16 04:38:00;;;;;;;;;;;;;;;;;;5103403;28;19928;-76
2024/02/16 04:40:26;;;;;;;;;;;;;;;;;;5096460;28;19928;-75
2024/02/16 04:42:53;;;;;;;;;;;;;;;;;;5084540;28;19924;-75
2024/02/16 04:45:20;;;;;;;;;;;;;;;;;;5110284;28;19938;-77
2024/02/16 04:47:46;;;;;;;;;;;;;;;;;;5105419;28;19932;-76
2024/02/16 04:50:13;;;;;;;;;;;;;;;;;;5113423;28;20022;-76
2024/02/16 04:52:40;;;;;;;;;;;;;;;;;;5113068;28;20019;-75
2024/02/16 04:55:07;;;;;;;;;;;;;;;;;;5099998;28;20015;-74
2024/02/16 04:57:34;;;;;;;;;;;;;;;;;;5102899;28;19924;-77
2024/02/16 05:00:00;;;;;;;;;;;;;;;;;;5105519;28;19988;-76
2024/02/16 05:02:27;;;;;;;;;;;;;;;;;;5106009;28;20007;-75
2024/02/16 05:04:54;;;;;;;;;;;;;;;;;;5107802;28;20312;-75
2024/02/16 05:07:20;;;;;;;;;;;;;;;;;;5105584;28;19924;-75
2024/02/16 05:09:47;;;;;;;;;;;;;;;;;;5101544;28;19997;-76
2024/02/16 05:12:13;;;;;;;;;;;;;;;;;;5101368;28;20366;-76
2024/02/16 05:14:40;;;;;;;;;;;;;;;;;;5102536;28;19928;-75
2024/02/16 05:17:06;;;;;;;;;;;;;;;;;;5112011;28;19930;-77
2024/02/16 05:19:34;;;;;;;;;;;;;;;;;;5104567;28;20274;-75
2024/02/16 05:22:01;;;;;;;;;;;;;;;;;;5104380;28;19924;-75
2024/02/16 05:24:27;;;;;;;;;;;;;;;;;;5105308;28;20304;-75
2024/02/16 05:26:55;;;;;;;;;;;;;;;;;;5107241;28;19924;-77
2024/02/16 05:29:22;;;;;;;;;;;;;;;;;;5105209;28;20438;-75
2024/02/16 05:31:48;;;;;;;;;;;;;;;;;;5100496;28;19924;-76
2024/02/16 05:34:14;;;;;;;;;;;;;;;;;;5106430;28;19930;-75
2024/02/16 05:36:41;;;;;;;;;;;;;;;;;;5102412;28;19928;-75
2024/02/16 05:39:26;;;;;;;;;;;;;;;;;;5107474;28;19970;-75
2024/02/16 05:41:52;;;;;;;;;;;;;;;;;;5093024;28;19989;-76
2024/02/16 05:44:19;;;;;;;;;;;;;;;;;;5105896;28;20022;-75
2024/02/16 05:46:46;;;;;;;;;;;;;;;;;;5106555;28;19928;-75
2024/02/16 05:49:12;;;;;;;;;;;;;;;;;;5104517;28;19924;-75
2024/02/16 05:51:39;;;;;;;;;;;;;;;;;;5097732;28;19924;-76
2024/02/16 05:54:07;;;;;;;;;;;;;;;;;;5087442;28;19935;-74
2024/02/16 05:56:34;;;;;;;;;;;;;;;;;;5105057;28;20019;-75
2024/02/16 05:59:00;;;;;;;;;;;;;;;;;;5105942;28;20027;-76
2024/02/16 06:01:27;;;;;;;;;;;;;;;;;;5106296;28;19924;-75
2024/02/16 06:03:54;;;;;;;;;;;;;;;;;;5104398;28;19924;-76
2024/02/16 06:06:20;;;;;;;;;;;;;;;;;;5088108;28;19924;-75
2024/02/16 06:08:46;;;;;;;;;;;;;;;;;;5102384;28;20426;-77
2024/02/16 06:11:13;;;;;;;;;;;;;;;;;;5106881;28;19976;-75
2024/02/16 06:13:39;;;;;;;;;;;;;;;;;;5099250;28;19924;-75
2024/02/16 06:16:08;;;;;;;;;;;;;;;;;;5085232;28;20019;-75
2024/02/16 06:18:34;;;;;;;;;;;;;;;;;;5107935;28;20023;-76
2024/02/16 06:21:01;;;;;;;;;;;;;;;;;;5098806;28;19924;-75
2024/02/16 06:23:28;;;;;;;;;;;;;;;;;;5105114;28;20027;-76
2024/02/16 06:25:54;;;;;;;;;;;;;;;;;;5107114;28;19977;-77
2024/02/16 06:28:22;;;;;;;;;;;;;;;;;;5105090;28;19931;-77
2024/02/16 06:30:48;;;;;;;;;;;;;;;;;;5102953;28;19931;-75
2024/02/16 06:33:15;;;;;;;;;;;;;;;;;;5104668;28;19924;-76
2024/02/16 06:35:41;;;;;;;;;;;;;;;;;;5107043;28;19928;-76
2024/02/16 06:38:08;;;;;;;;;;;;;;;;;;5108971;28;19980;-75
2024/02/16 06:40:34;;;;;;;;;;;;;;;;;;5104063;28;19993;-76
2024/02/16 06:43:01;;;;;;;;;;;;;;;;;;5101967;28;19946;-76
2024/02/16 06:45:29;;;;;;;;;;;;;;;;;;5108858;28;20043;-77
2024/02/16 06:47:56;;;;;;;;;;;;;;;;;;5104197;28;19923;-75
2024/02/16 06:50:23;;;;;;;;;;;;;;;;;;5109881;28;19924;-75
2024/02/16 06:52:49;;;;;;;;;;;;;;;;;;5098868;28;19924;-76
2024/02/16 06:55:16;;;;;;;;;;;;;;;;;;5103924;28;19935;-76
2024/02/16 06:57:43;;;;;;;;;;;;;;;;;;5104849;28;19924;-76
2024/02/16 07:00:09;;;;;;;;;;;;;;;;;;5105073;28;19992;-76
2024/02/16 07:02:36;;;;;;;;;;;;;;;;;;5102634;28;19981;-76
2024/02/16 07:05:02;;;;;;;;;;;;;;;;;;5089015;28;19924;-76
2024/02/16 07:07:29;;;;;;;;;;;;;;;;;;5100566;28;20003;-77
2024/02/16 07:09:55;;;;;;;;;;;;;;;;;;5080104;28;19924;-75
2024/02/16 07:12:23;;;;;;;;;;;;;;;;;;5090661;28;19924;-76
2024/02/16 07:14:50;;;;;;;;;;;;;;;;;;5102583;28;19931;-74
2024/02/16 07:17:16;;;;;;;;;;;;;;;;;;5105933;28;19928;-77
2024/02/16 07:19:45;;;;;;;;;;;;;;;;;;5100890;28;20406;-76
2024/02/16 07:22:12;;;;;;;;;;;;;;;;;;5102785;28;19924;-76
2024/02/16 07:24:38;;;;;;;;;;;;;;;;;;5107654;28;19969;-76
2024/02/16 07:27:05;;;;;;;;;;;;;;;;;;5103258;28;20446;-75
2024/02/16 07:29:31;;;;;;;;;;;;;;;;;;5105598;28;19984;-76
2024/02/16 07:31:58;;;;;;;;;;;;;;;;;;5099830;28;19973;-76
2024/02/16 07:34:24;;;;;;;;;;;;;;;;;;5096998;28;19924;-76
2024/02/16 07:36:52;;;;;;;;;;;;;;;;;;5090510;28;19928;-76
2024/02/16 07:39:18;;;;;;;;;;;;;;;;;;5104505;28;19924;-77
2024/02/16 07:41:45;;;;;;;;;;;;;;;;;;5110992;28;19928;-76
2024/02/16 07:44:11;;;;;;;;;;;;;;;;;;5098465;28;20428;-77
2024/02/16 07:46:37;;;;;;;;;;;;;;;;;;5104246;28;19973;-76
2024/02/16 07:49:04;;;;;;;;;;;;;;;;;;5110187;28;19924;-76
2024/02/16 07:51:30;;;;;;;;;;;;;;;;;;5101568;28;20277;-75
2024/02/16 07:53:57;;;;;;;;;;;;;;;;;;5101824;28;20329;-74
2024/02/16 07:56:24;;;;;;;;;;;;;;;;;;5104712;28;19931;-75
2024/02/16 07:58:50;;;;;;;;;;;;;;;;;;5103329;28;19924;-76
2024/02/16 08:01:16;;;;;;;;;;;;;;;;;;5101008;28;19928;-78
2024/02/16 08:03:43;;;;;;;;;;;;;;;;;;5102820;28;19963;-78
2024/02/16 08:06:09;;;;;;;;;;;;;;;;;;5102425;28;20016;-77
2024/02/16 08:08:36;;;;;;;;;;;;;;;;;;5088187;28;20401;-76
2024/02/16 08:11:02;;;;;;;;;;;;;;;;;;5108976;28;19924;-76
2024/02/16 08:13:29;;;;;;;;;;;;;;;;;;5100392;28;19963;-75
2024/02/16 08:15:56;;;;;;;;;;;;;;;;;;5102139;28;19923;-77
2024/02/16 08:18:23;;;;;;;;;;;;;;;;;;5102885;28;19928;-77
2024/02/16 08:20:50;;;;;;;;;;;;;;;;;;5114542;28;19924;-76
2024/02/16 08:23:16;;;;;;;;;;;;;;;;;;5102472;28;19940;-76
2024/02/16 08:25:43;;;;;;;;;;;;;;;;;;5105114;28;20391;-76
2024/02/16 08:28:09;;;;;;;;;;;;;;;;;;5107814;28;19973;-76
2024/02/16 08:30:40;;;;;;;;;;;;;;;;;;5102717;28;19924;-77
2024/02/16 08:33:07;;;;;;;;;;;;;;;;;;5107612;28;19974;-76
2024/02/16 08:35:33;;;;;;;;;;;;;;;;;;5107615;28;19924;-76
2024/02/16 08:38:00;;;;;;;;;;;;;;;;;;5111838;28;19955;-76
2024/02/16 08:40:26;;;;;;;;;;;;;;;;;;5114510;28;20686;-75
2024/02/16 08:42:52;;;;;;;;;;;;;;;;;;5109342;28;19923;-77
2024/02/16 08:45:19;;;;;;;;;;;;;;;;;;5093535;28;19924;-76
2024/02/16 08:47:45;;;;;;;;;;;;;;;;;;5110550;28;20399;-76
2024/02/16 08:50:14;;;;;;;;;;;;;;;;;;5104293;28;19985;-76
2024/02/16 08:52:41;;;;;;;;;;;;;;;;;;5108928;28;19989;-76
2024/02/16 08:55:07;;;;;;;;;;;;;;;;;;5107813;28;19924;-78
2024/02/16 08:57:34;;;;;;;;;;;;;;;;;;5102327;28;19938;-77
2024/02/16 09:00:00;;;;;;;;;;;;;;;;;;5112078;28;19931;-76
2024/02/16 09:02:27;;;;;;;;;;;;;;;;;;5107208;28;19978;-75
2024/02/16 09:04:53;;;;;;;;;;;;;;;;;;5113834;28;20014;-76
2024/02/16 09:07:20;;;;;;;;;;;;;;;;;;5108752;28;20434;-77
2024/02/16 09:09:48;;;;;;;;;;;;;;;;;;5087804;28;20273;-76
2024/02/16 09:12:14;;;;;;;;;;;;;;;;;;5105758;28;19924;-75
2024/02/16 09:14:41;;;;;;;;;;;;;;;;;;5105876;28;20424;-76
2024/02/16 09:17:07;;;;;;;;;;;;;;;;;;5102352;28;20022;-76
2024/02/16 09:19:33;;;;;;;;;;;;;;;;;;5088038;28;19931;-76
2024/02/16 09:22:02;;;;;;;;;;;;;;;;;;5091963;28;19924;-76
2024/02/16 09:24:29;;;;;;;;;;;;;;;;;;5110344;28;19963;-76
2024/02/16 09:26:56;;;;;;;;;;;;;;;;;;5103142;28;20395;-76
2024/02/16 09:29:22;;;;;;;;;;;;;;;;;;5106987;28;20453;-77
2024/02/16 09:31:49;;;;;;;;;;;;;;;;;;5104765;28;19962;-75
2024/02/16 09:34:15;;;;;;;;;;;;;;;;;;5103994;28;20026;-76
2024/02/16 09:36:42;;;;;;;;;;;;;;;;;;5100738;28;20312;-76
2024/02/16 09:39:09;;;;;;;;;;;;;;;;;;5102050;28;19924;-76
2024/02/16 09:41:36;;;;;;;;;;;;;;;;;;5100935;28;19924;-76
2024/02/16 09:44:02;;;;;;;;;;;;;;;;;;5102188;28;20022;-75
2024/02/16 09:46:29;;;;;;;;;;;;;;;;;;5106666;28;19923;-76
2024/02/16 09:48:55;;;;;;;;;;;;;;;;;;5106376;28;19924;-76
2024/02/16 09:51:22;;;;;;;;;;;;;;;;;;5099766;28;19931;-76
2024/02/16 09:53:48;;;;;;;;;;;;;;;;;;5104975;28;19931;-76
2024/02/16 09:56:15;;;;;;;;;;;;;;;;;;5101574;28;19934;-76
2024/02/16 09:58:41;;;;;;;;;;;;;;;;;;5101402;28;19924;-76
2024/02/16 10:01:08;;;;;;;;;;;;;;;;;;5103487;28;19928;-77
2024/02/16 10:03:34;;;;;;;;;;;;;;;;;;5105548;28;19970;-75
2024/02/16 10:06:01;;;;;;;;;;;;;;;;;;5113010;28;19924;-76
2024/02/16 10:08:28;;;;;;;;;;;;;;;;;;5103103;28;19933;-76
2024/02/16 10:10:54;;;;;;;;;;;;;;;;;;5101936;28;19963;-75
2024/02/16 10:13:20;;;;;;;;;;;;;;;;;;5108598;28;20353;-76
2024/02/16 10:15:47;;;;;;;;;;;;;;;;;;5102484;28;19993;-76
2024/02/16 10:18:14;;;;;;;;;;;;;;;;;;5108205;28;19947;-74
2024/02/16 10:20:41;;;;;;;;;;;;;;;;;;5105008;28;19928;-76
2024/02/16 10:23:08;;;;;;;;;;;;;;;;;;5086032;28;19931;-76
2024/02/16 10:25:34;;;;;;;;;;;;;;;;;;5102743;28;20014;-76
2024/02/16 10:28:01;;;;;;;;;;;;;;;;;;5088065;28;19973;-74
2024/02/16 10:30:27;;;;;;;;;;;;;;;;;;5103545;28;19938;-76
2024/02/16 10:32:54;;;;;;;;;;;;;;;;;;5087625;28;19959;-76
2024/02/16 10:35:20;;;;;;;;;;;;;;;;;;5112694;28;19924;-74
2024/02/16 10:37:47;;;;;;;;;;;;;;;;;;5103278;28;20365;-76
2024/02/16 10:40:13;;;;;;;;;;;;;;;;;;5108323;28;20008;-76
2024/02/16 10:42:40;;;;;;;;;;;;;;;;;;5108491;28;19928;-77
2024/02/16 10:45:06;;;;;;;;;;;;;;;;;;5099534;28;19935;-77
2024/02/16 10:47:33;;;;;;;;;;;;;;;;;;5109087;28;19924;-75
2024/02/16 10:49:59;;;;;;;;;;;;;;;;;;5100493;28;19924;-76
2024/02/16 10:52:25;;;;;;;;;;;;;;;;;;5106443;28;19993;-76
2024/02/16 10:54:52;;;;;;;;;;;;;;;;;;5111343;28;20353;-77
2024/02/16 10:57:18;;;;;;;;;;;;;;;;;;5100850;28;20376;-76
2024/02/16 10:59:50;;;;;;;;;;;;;;;;;;5109040;28;19986;-77
2024/02/16 11:02:16;;;;;;;;;;;;;;;;;;5079096;28;19935;-76
2024/02/16 11:04:43;;;;;;;;;;;;;;;;;;5098914;28;19974;-77
2024/02/16 11:07:09;;;;;;;;;;;;;;;;;;5100224;28;19947;-76
2024/02/16 11:09:36;;;;;;;;;;;;;;;;;;5101729;28;19931;-76
2024/02/16 11:12:02;;;;;;;;;;;;;;;;;;5103105;28;19959;-76
2024/02/16 11:14:29;;;;;;;;;;;;;;;;;;5103444;28;20296;-76
2024/02/16 11:16:56;;;;;;;;;;;;;;;;;;5100694;28;19925;-76
2024/02/16 11:19:23;;;;;;;;;;;;;;;;;;5100752;28;19924;-76
2024/02/16 11:21:50;;;;;;;;;;;;;;;;;;5100283;28;19967;-77
2024/02/16 11:24:16;;;;;;;;;;;;;;;;;;5104840;28;19946;-76
2024/02/16 11:26:43;;;;;;;;;;;;;;;;;;5098971;28;20026;-77
2024/02/16 11:29:10;;;;;;;;;;;;;;;;;;5103208;28;20383;-76
2024/02/16 11:31:37;;;;;;;;;;;;;;;;;;5110407;28;20026;-76
2024/02/16 11:34:03;;;;;;;;;;;;;;;;;;5109105;28;20019;-77
2024/02/16 11:36:29;;;;;;;;;;;;;;;;;;5083426;28;19931;-76
2024/02/16 11:38:56;;;;;;;;;;;;;;;;;;5108815;28;19977;-77
2024/02/16 11:41:22;;;;;;;;;;;;;;;;;;5105156;28;19978;-76
2024/02/16 11:43:49;;;;;;;;;;;;;;;;;;5104559;28;19934;-76
2024/02/16 11:46:17;;;;;;;;;;;;;;;;;;5096145;28;19930;-76
2024/02/16 11:48:43;;;;;;;;;;;;;;;;;;5103327;28;20009;-75
2024/02/16 11:51:10;;;;;;;;;;;;;;;;;;5105529;28;19931;-76
2024/02/16 11:53:36;;;;;;;;;;;;;;;;;;5098141;28;19932;-76
2024/02/16 11:56:03;;;;;;;;;;;;;;;;;;5104828;28;19925;-75
2024/02/16 11:58:29;;;;;;;;;;;;;;;;;;5096709;28;19924;-76
2024/02/16 12:00:59;;;;;;;;;;;;;;;;;;5089399;28;20022;-77
2024/02/16 12:03:28;;;;;;;;;;;;;;;;;;5099641;28;19946;-76
2024/02/16 12:05:55;;;;;;;;;;;;;;;;;;5109691;27;19968;-76
2024/02/16 12:08:21;;;;;;;;;;;;;;;;;;5111158;28;20014;-76
2024/02/16 12:10:48;;;;;;;;;;;;;;;;;;5106685;27;19928;-76
2024/02/16 12:13:15;;;;;;;;;;;;;;;;;;5108391;28;19959;-77
2024/02/16 12:15:42;;;;;;;;;;;;;;;;;;5108706;28;20040;-78
2024/02/16 12:18:08;;;;;;;;;;;;;;;;;;5107322;28;20301;-76
2024/02/16 12:20:35;;;;;;;;;;;;;;;;;;5099221;28;19924;-76
2024/02/16 12:23:02;;;;;;;;;;;;;;;;;;5109080;28;19924;-76
2024/02/16 12:25:28;;;;;;;;;;;;;;;;;;5090859;28;19930;-76
2024/02/16 12:27:55;;;;;;;;;;;;;;;;;;5105404;28;20288;-76
2024/02/16 12:30:21;;;;;;;;;;;;;;;;;;5108285;28;19927;-76
2024/02/16 12:32:47;;;;;;;;;;;;;;;;;;5106001;28;20035;-76
2024/02/16 12:35:15;;;;;;;;;;;;;;;;;;5105057;28;20014;-76
2024/02/16 12:37:41;;;;;;;;;;;;;;;;;;5095665;28;19978;-77
2024/02/16 12:40:08;;;;;;;;;;;;;;;;;;5103979;28;19934;-76
2024/02/16 12:42:34;;;;;;;;;;;;;;;;;;5110759;28;19948;-76
2024/02/16 12:45:00;;;;;;;;;;;;;;;;;;5111773;28;20015;-76
2024/02/16 12:47:27;;;;;;;;;;;;;;;;;;5085475;28;19928;-77
2024/02/16 12:49:53;;;;;;;;;;;;;;;;;;5100344;28;19963;-76
2024/02/16 12:52:22;;;;;;;;;;;;;;;;;;5104258;28;19924;-75
2024/02/16 12:54:48;;;;;;;;;;;;;;;;;;5108066;28;20420;-77
2024/02/16 12:57:15;;;;;;;;;;;;;;;;;;5105279;28;19924;-76
2024/02/16 12:59:41;;;;;;;;;;;;;;;;;;5102398;28;19924;-76
2024/02/16 13:02:07;;;;;;;;;;;;;;;;;;5108674;28;20018;-77
2024/02/16 13:04:34;;;;;;;;;;;;;;;;;;5107546;28;20579;-78
2024/02/16 13:07:00;;;;;;;;;;;;;;;;;;5104406;28;20326;-79
2024/02/16 13:09:28;;;;;;;;;;;;;;;;;;5114121;28;19992;-79
2024/02/16 13:11:54;;;;;;;;;;;;;;;;;;5120993;28;20011;-79
2024/02/16 13:14:21;;;;;;;;;;;;;;;;;;5108688;28;20023;-79
2024/02/16 13:16:47;;;;;;;;;;;;;;;;;;5110756;28;19967;-80
2024/02/16 13:19:14;;;;;;;;;;;;;;;;;;5114036;28;19923;-80
2024/02/16 13:21:40;;;;;;;;;;;;;;;;;;5106949;28;20020;-79
2024/02/16 13:24:07;;;;;;;;;;;;;;;;;;5105897;28;19951;-80
2024/02/16 13:26:33;;;;;;;;;;;;;;;;;;5112864;28;20431;-79
2024/02/16 13:29:00;;;;;;;;;;;;;;;;;;5105837;28;20702;-80
2024/02/16 13:31:26;;;;;;;;;;;;;;;;;;5100247;28;19930;-80
2024/02/16 13:33:52;;;;;;;;;;;;;;;;;;5103124;28;20337;-79
2024/02/16 13:36:19;;;;;;;;;;;;;;;;;;5105700;28;19969;-79
2024/02/16 13:38:45;;;;;;;;;;;;;;;;;;5108700;28;19935;-80
2024/02/16 13:41:12;;;;;;;;;;;;;;;;;;5079542;28;20384;-79
2024/02/16 13:43:41;;;;;;;;;;;;;;;;;;5089111;28;19928;-79
2024/02/16 13:46:07;;;;;;;;;;;;;;;;;;5110317;28;19934;-78
2024/02/16 13:48:37;;;;;;;;;;;;;;;;;;5108033;28;20046;-78
2024/02/16 13:51:05;;;;;;;;;;;;;;;;;;5098320;28;20015;-79
2024/02/16 13:53:31;;;;;;;;;;;;;;;;;;5105410;28;19931;-79
2024/02/16 13:56:04;;;;;;;;;;;;;;;;;;5101971;28;20289;-79
2024/02/16 13:58:30;;;;;;;;;;;;;;;;;;5110307;28;19930;-79
2024/02/16 14:00:56;;;;;;;;;;;;;;;;;;5110293;28;19924;-80
2024/02/16 14:03:23;;;;;;;;;;;;;;;;;;5105051;28;20023;-79
2024/02/16 14:05:49;;;;;;;;;;;;;;;;;;5101446;28;19924;-79
2024/02/16 14:08:16;;;;;;;;;;;;;;;;;;5103957;28;19928;-79
2024/02/16 14:10:42;;;;;;;;;;;;;;;;;;5100584;28;19924;-80
2024/02/16 14:13:09;;;;;;;;;;;;;;;;;;5099295;28;19951;-79
2024/02/16 14:15:35;;;;;;;;;;;;;;;;;;5108714;28;19951;-80
2024/02/16 14:18:02;;;;;;;;;;;;;;;;;;5105590;28;20005;-79
2024/02/16 14:20:33;;;;;;;;;;;;;;;;;;5104306;28;19938;-80
2024/02/16 14:23:02;;;;;;;;;;;;;;;;;;5110264;28;19924;-80
2024/02/16 14:25:28;;;;;;;;;;;;;;;;;;5103158;28;19951;-80
2024/02/16 14:27:56;;;;;;;;;;;;;;;;;;5101061;28;19924;-80
2024/02/16 14:30:22;;;;;;;;;;;;;;;;;;5102610;28;19924;-79
2024/02/16 14:32:48;;;;;;;;;;;;;;;;;;5102519;28;19989;-80
2024/02/16 14:35:18;;;;;;;;;;;;;;;;;;5104080;28;19931;-80
2024/02/16 14:37:45;;;;;;;;;;;;;;;;;;5099679;28;19924;-79
2024/02/16 14:40:11;;;;;;;;;;;;;;;;;;5106625;28;19945;-79
2024/02/16 14:42:39;;;;;;;;;;;;;;;;;;5104682;28;20396;-80
2024/02/16 14:45:09;;;;;;;;;;;;;;;;;;5104951;28;19923;-80
2024/02/16 14:47:35;;;;;;;;;;;;;;;;;;5101000;28;19928;-80
2024/02/16 14:50:03;;;;;;;;;;;;;;;;;;5094556;28;19930;-79
2024/02/16 14:52:30;;;;;;;;;;;;;;;;;;5109780;28;19931;-79
2024/02/16 14:54:56;;;;;;;;;;;;;;;;;;5100065;28;19924;-78
2024/02/16 14:57:24;;;;;;;;;;;;;;;;;;5107801;28;20022;-80
2024/02/16 14:59:55;;;;;;;;;;;;;;;;;;5104311;28;19924;-80
2024/02/16 15:02:22;;;;;;;;;;;;;;;;;;5103325;28;20020;-82
2024/02/16 15:04:48;;;;;;;;;;;;;;;;;;5106241;28;19932;-80
2024/02/16 15:07:15;;;;;;;;;;;;;;;;;;5102606;28;19924;-79
2024/02/16 15:09:41;;;;;;;;;;;;;;;;;;5108668;28;20006;-79
2024/02/16 15:12:08;;;;;;;;;;;;;;;;;;5105004;28;20027;-79
2024/02/16 15:14:34;;;;;;;;;;;;;;;;;;5107146;28;19927;-80
2024/02/16 15:17:00;;;;;;;;;;;;;;;;;;5099324;28;20399;-79
2024/02/16 15:19:27;;;;;;;;;;;;;;;;;;5102805;28;20022;-80
2024/02/16 15:21:53;;;;;;;;;;;;;;;;;;5086105;28;20008;-79
2024/02/16 15:24:20;;;;;;;;;;;;;;;;;;5100832;28;20411;-79
2024/02/16 15:26:46;;;;;;;;;;;;;;;;;;5104831;28;20407;-79
2024/02/16 15:29:13;;;;;;;;;;;;;;;;;;5102571;28;19928;-79
2024/02/16 15:31:40;;;;;;;;;;;;;;;;;;5103522;28;20091;-79
2024/02/16 15:34:06;;;;;;;;;;;;;;;;;;5101539;28;19930;-80
2024/02/16 15:36:34;;;;;;;;;;;;;;;;;;5107882;28;19924;-79
2024/02/16 15:39:00;;;;;;;;;;;;;;;;;;5110990;28;19930;-79
2024/02/16 15:41:27;;;;;;;;;;;;;;;;;;5109031;28;20379;-80
2024/02/16 15:43:54;;;;;;;;;;;;;;;;;;5101480;28;20010;-80
2024/02/16 15:46:20;;;;;;;;;;;;;;;;;;5100106;28;19998;-80
2024/02/16 15:48:48;;;;;;;;;;;;;;;;;;5104198;28;19931;-79
2024/02/16 15:51:14;;;;;;;;;;;;;;;;;;5100377;28;20011;-80
2024/02/16 15:53:41;;;;;;;;;;;;;;;;;;5103925;28;19986;-82
2024/02/16 15:56:07;;;;;;;;;;;;;;;;;;5082060;28;19924;-80
2024/02/16 15:58:34;;;;;;;;;;;;;;;;;;5101866;28;19930;-79
2024/02/16 16:01:00;;;;;;;;;;;;;;;;;;5101660;28;19932;-80
2024/02/16 16:03:27;;;;;;;;;;;;;;;;;;5101238;28;19924;-80
2024/02/16 16:05:53;;;;;;;;;;;;;;;;;;5105131;28;19990;-80
2024/02/16 16:08:20;;;;;;;;;;;;;;;;;;5102238;28;19924;-80
2024/02/16 16:10:48;;;;;;;;;;;;;;;;;;5101844;28;19924;-81
2024/02/16 16:13:14;;;;;;;;;;;;;;;;;;5098698;28;19977;-81
2024/02/16 16:15:44;;;;;;;;;;;;;;;;;;5102333;28;20469;-81
2024/02/16 16:18:11;;;;;;;;;;;;;;;;;;5102433;28;19930;-81
2024/02/16 16:20:38;;;;;;;;;;;;;;;;;;5097462;28;19924;-80
2024/02/16 16:23:04;;;;;;;;;;;;;;;;;;5098658;28;19928;-80
2024/02/16 16:25:30;;;;;;;;;;;;;;;;;;5105195;28;19927;-80
2024/02/16 16:27:57;;;;;;;;;;;;;;;;;;5096980;28;19924;-80
2024/02/16 16:30:23;;;;;;;;;;;;;;;;;;5098190;28;19942;-79
2024/02/16 16:32:49;;;;;;;;;;;;;;;;;;5095815;28;20000;-79
2024/02/16 16:35:16;;;;;;;;;;;;;;;;;;5098726;28;20338;-79
2024/02/16 16:37:42;;;;;;;;;;;;;;;;;;5102917;28;19924;-79
2024/02/16 16:40:09;;;;;;;;;;;;;;;;;;5101467;28;19927;-79
2024/02/16 16:42:35;;;;;;;;;;;;;;;;;;5091303;28;19924;-80